createdAt,value
2019-03-03T00:01:02.075Z,4.35
2019-03-03T00:02:07.057Z,9.18
2019-03-03T00:03:12.346Z,7.08
2019-03-03T00:04:17.663Z,5.58
2019-03-03T00:05:22.605Z,10.78
2019-03-03T00:06:28.107Z,6.47
2019-03-03T00:07:33.095Z,10.03
2019-03-03T00:08:37.814Z,8.28
2019-03-03T00:09:42.784Z,10.30
2019-03-03T00:10:47.758Z,8.73
2019-03-03T00:11:53.013Z,6.83
2019-03-03T00:12:57.705Z,7.62
2019-03-03T00:14:02.295Z,8.90
2019-03-03T00:15:07.543Z,7.58
2019-03-03T00:16:12.502Z,6.28
2019-03-03T00:17:18.127Z,8.25
2019-03-03T00:18:23.354Z,5.67
2019-03-03T00:19:28.584Z,6.72
2019-03-03T00:20:33.845Z,9.83
2019-03-03T00:21:38.537Z,10.60
2019-03-03T00:22:43.293Z,9.78
2019-03-03T00:23:48.282Z,9.60
2019-03-03T00:24:53.290Z,8.48
2019-03-03T00:25:58.585Z,9.95
2019-03-03T00:27:03.560Z,6.80
2019-03-03T00:28:08.504Z,6.42
2019-03-03T00:29:13.486Z,6.25
2019-03-03T00:30:18.479Z,5.53
2019-03-03T00:31:34.282Z,7.10
2019-03-03T00:32:39.272Z,6.12
2019-03-03T00:33:44.280Z,6.70
2019-03-03T00:34:49.240Z,7.92
2019-03-03T00:35:54.232Z,8.68
2019-03-03T00:37:10.766Z,8.33
2019-03-03T00:38:34.890Z,7.47
2019-03-03T00:40:01.745Z,5.08
2019-03-03T00:41:28.753Z,8.60
2019-03-03T00:42:52.575Z,6.65
2019-03-03T00:44:15.227Z,9.95
2019-03-03T00:45:54.031Z,6.50
2019-03-03T00:47:20.880Z,8.08
2019-03-03T00:48:47.545Z,6.45
2019-03-03T00:50:18.350Z,11.18
2019-03-03T00:51:34.953Z,9.00
2019-03-03T00:52:51.019Z,10.88
2019-03-03T00:54:12.858Z,5.25
2019-03-03T00:55:35.626Z,6.47
2019-03-03T00:57:08.452Z,7.58
2019-03-03T00:58:25.686Z,7.08
2019-03-03T01:00:01.585Z,6.58
2019-03-03T01:01:18.905Z,6.67
2019-03-03T01:02:32.694Z,9.68
2019-03-03T01:03:56.249Z,9.23
2019-03-03T01:05:38.307Z,7.72
2019-03-03T01:07:00.879Z,6.05
2019-03-03T01:08:36.374Z,11.45
2019-03-03T01:10:09.315Z,7.45
2019-03-03T01:11:33.518Z,10.30
2019-03-03T01:12:54.828Z,6.62
2019-03-03T01:14:37.004Z,5.35
2019-03-03T01:15:55.057Z,8.48
2019-03-03T01:17:10.430Z,6.08
2019-03-03T01:18:49.614Z,6.53
2019-03-03T01:20:02.439Z,7.08
2019-03-03T01:21:13.638Z,9.55
2019-03-03T01:22:35.712Z,7.85
2019-03-03T01:24:05.697Z,9.35
2019-03-03T01:25:11.214Z,7.25
2019-03-03T01:26:18.076Z,11.05
2019-03-03T01:27:24.116Z,10.43
2019-03-03T01:28:29.378Z,9.25
2019-03-03T01:29:34.651Z,9.43
2019-03-03T01:30:39.415Z,6.33
2019-03-03T01:31:44.110Z,9.35
2019-03-03T01:32:48.901Z,7.25
2019-03-03T01:33:54.470Z,10.40
2019-03-03T01:34:59.729Z,8.15
2019-03-03T01:36:04.413Z,7.83
2019-03-03T01:37:09.187Z,8.15
2019-03-03T01:38:14.185Z,11.20
2019-03-03T01:39:18.999Z,9.93
2019-03-03T01:40:24.269Z,11.50
2019-03-03T01:41:29.253Z,7.67
2019-03-03T01:42:34.538Z,7.92
2019-03-03T01:43:39.051Z,9.10
2019-03-03T01:44:43.785Z,10.38
2019-03-03T01:45:48.452Z,9.75
2019-03-03T01:46:53.806Z,7.95
2019-03-03T01:47:58.530Z,10.90
2019-03-03T01:49:03.520Z,8.73
2019-03-03T01:50:09.548Z,9.70
2019-03-03T01:51:14.537Z,11.08
2019-03-03T01:52:19.519Z,7.47
2019-03-03T01:53:24.803Z,11.28
2019-03-03T01:54:29.898Z,8.68
2019-03-03T01:55:34.584Z,10.60
2019-03-03T01:56:39.341Z,8.90
2019-03-03T01:57:44.323Z,9.28
2019-03-03T01:58:49.615Z,8.83
2019-03-03T01:59:54.846Z,7.67
2019-03-03T02:00:59.811Z,6.92
2019-03-03T02:02:05.350Z,9.65
2019-03-03T02:03:09.832Z,11.68
2019-03-03T02:04:14.553Z,10.30
2019-03-03T02:05:22.883Z,8.88
2019-03-03T02:06:27.890Z,8.50
2019-03-03T02:07:32.772Z,10.58
2019-03-03T02:08:37.730Z,8.68
2019-03-03T02:09:42.450Z,8.48
2019-03-03T02:10:47.162Z,10.08
2019-03-03T02:11:52.241Z,11.95
2019-03-03T02:12:56.919Z,9.70
2019-03-03T02:14:02.179Z,9.93
2019-03-03T02:15:08.602Z,7.83
2019-03-03T02:16:13.766Z,9.65
2019-03-03T02:17:20.622Z,7.17
2019-03-03T02:18:26.177Z,9.40
2019-03-03T02:19:31.516Z,10.60
2019-03-03T02:20:36.197Z,11.75
2019-03-03T02:21:40.916Z,12.00
2019-03-03T02:22:45.898Z,7.17
2019-03-03T02:23:51.145Z,6.92
2019-03-03T02:24:56.133Z,9.00
2019-03-03T02:26:01.140Z,13.08
2019-03-03T02:27:05.592Z,9.58
2019-03-03T02:28:10.936Z,9.03
2019-03-03T02:29:16.183Z,10.75
2019-03-03T02:30:22.208Z,6.92
2019-03-03T02:31:27.172Z,9.18
2019-03-03T02:32:32.578Z,10.03
2019-03-03T02:33:37.812Z,10.43
2019-03-03T02:34:43.356Z,10.25
2019-03-03T02:35:48.588Z,6.40
2019-03-03T02:36:53.972Z,7.75
2019-03-03T02:37:59.225Z,9.70
2019-03-03T02:39:05.383Z,8.03
2019-03-03T02:40:12.630Z,7.30
2019-03-03T02:41:18.055Z,10.53
2019-03-03T02:42:23.455Z,7.95
2019-03-03T02:43:29.018Z,8.65
2019-03-03T02:44:34.275Z,10.75
2019-03-03T02:45:39.294Z,8.43
2019-03-03T02:46:43.747Z,10.65
2019-03-03T02:47:49.011Z,10.58
2019-03-03T02:48:54.363Z,10.30
2019-03-03T02:49:59.604Z,10.93
2019-03-03T02:51:04.565Z,8.55
2019-03-03T02:52:09.857Z,12.78
2019-03-03T02:53:14.886Z,10.95
2019-03-03T02:54:19.866Z,11.03
2019-03-03T02:55:24.796Z,7.10
2019-03-03T02:56:30.087Z,11.35
2019-03-03T02:57:35.073Z,8.55
2019-03-03T02:58:40.079Z,9.33
2019-03-03T02:59:45.319Z,12.23
2019-03-03T03:01:02.735Z,11.48
2019-03-03T03:02:13.073Z,9.70
2019-03-03T03:03:18.093Z,8.38
2019-03-03T03:04:22.542Z,8.43
2019-03-03T03:05:54.779Z,7.33
2019-03-03T03:07:30.843Z,12.98
2019-03-03T03:08:53.908Z,13.40
2019-03-03T03:10:03.809Z,10.03
2019-03-03T03:11:19.396Z,14.20
2019-03-03T03:12:38.891Z,11.60
2019-03-03T03:14:15.143Z,9.50
2019-03-03T03:15:44.832Z,7.97
2019-03-03T03:16:54.866Z,10.95
2019-03-03T03:18:18.800Z,10.05
2019-03-03T03:19:46.389Z,13.95
2019-03-03T03:21:22.846Z,10.68
2019-03-03T03:22:34.655Z,12.40
2019-03-03T03:24:04.944Z,11.15
2019-03-03T03:25:43.383Z,11.05
2019-03-03T03:27:00.503Z,11.73
2019-03-03T03:28:27.195Z,11.60
2019-03-03T03:29:43.520Z,13.43
2019-03-03T03:31:13.289Z,8.30
2019-03-03T03:32:24.347Z,8.98
2019-03-03T03:33:48.202Z,16.52
2019-03-03T03:35:01.021Z,13.08
2019-03-03T03:36:27.750Z,10.63
2019-03-03T03:37:57.791Z,12.78
2019-03-03T03:39:27.760Z,15.00
2019-03-03T03:40:53.655Z,12.33
2019-03-03T03:42:23.664Z,14.00
2019-03-03T03:43:46.190Z,8.73
2019-03-03T03:45:12.730Z,15.50
2019-03-03T03:46:35.430Z,13.08
2019-03-03T03:47:55.670Z,12.45
2019-03-03T03:49:38.230Z,10.70
2019-03-03T03:50:53.893Z,9.20
2019-03-03T03:52:20.632Z,9.63
2019-03-03T03:53:42.245Z,12.18
2019-03-03T03:54:54.260Z,11.50
2019-03-03T03:56:18.133Z,6.00
2019-03-03T03:57:38.069Z,12.63
2019-03-03T03:59:01.390Z,11.03
2019-03-03T04:00:20.286Z,12.90
2019-03-03T04:01:44.959Z,11.38
2019-03-03T04:03:07.603Z,10.38
2019-03-03T04:04:21.769Z,13.18
2019-03-03T04:05:45.361Z,10.58
2019-03-03T04:07:02.500Z,8.98
2019-03-03T04:08:26.074Z,10.70
2019-03-03T04:09:49.435Z,13.03
2019-03-03T04:11:16.167Z,11.78
2019-03-03T04:12:38.113Z,13.38
2019-03-03T04:14:00.081Z,13.78
2019-03-03T04:15:19.218Z,9.28
2019-03-03T04:16:28.792Z,12.58
2019-03-03T04:17:52.129Z,12.82
2019-03-03T04:19:19.204Z,9.10
2019-03-03T04:20:33.210Z,7.70
2019-03-03T04:21:54.119Z,12.07
2019-03-03T04:23:09.242Z,12.78
2019-03-03T04:24:30.456Z,13.58
2019-03-03T04:25:57.225Z,10.63
2019-03-03T04:27:27.322Z,12.58
2019-03-03T04:28:43.160Z,12.40
2019-03-03T04:29:58.416Z,9.80
2019-03-03T04:31:12.302Z,11.08
2019-03-03T04:32:26.952Z,10.63
2019-03-03T04:33:43.963Z,15.05
2019-03-03T04:35:10.638Z,14.18
2019-03-03T04:36:37.412Z,10.18
2019-03-03T04:38:04.766Z,9.93
2019-03-03T04:39:31.242Z,12.15
2019-03-03T04:40:48.408Z,14.43
2019-03-03T04:42:13.709Z,14.35
2019-03-03T04:43:49.922Z,10.43
2019-03-03T04:45:23.468Z,12.47
2019-03-03T04:46:37.897Z,10.85
2019-03-03T04:48:10.709Z,12.33
2019-03-03T04:49:32.657Z,10.38
2019-03-03T04:50:51.410Z,13.38
2019-03-03T04:52:19.945Z,13.95
2019-03-03T04:53:39.287Z,13.45
2019-03-03T04:54:58.838Z,8.50
2019-03-03T04:56:25.521Z,12.35
2019-03-03T04:57:39.939Z,12.75
2019-03-03T04:59:15.992Z,11.78
2019-03-03T05:00:38.133Z,14.25
2019-03-03T05:02:04.849Z,13.80
2019-03-03T05:03:27.364Z,12.23
2019-03-03T05:04:50.206Z,13.70
2019-03-03T05:06:32.608Z,9.35
2019-03-03T05:07:53.925Z,11.97
2019-03-03T05:09:16.558Z,15.32
2019-03-03T05:10:46.276Z,13.20
2019-03-03T05:12:55.566Z,16.93
2019-03-03T05:14:07.185Z,14.55
2019-03-03T05:15:47.093Z,12.20
2019-03-03T05:16:59.502Z,13.30
2019-03-03T05:18:23.084Z,14.45
2019-03-03T05:19:35.262Z,13.10
2019-03-03T05:20:47.585Z,12.60
2019-03-03T05:21:52.569Z,10.00
2019-03-03T05:22:57.821Z,9.95
2019-03-03T05:24:03.153Z,8.83
2019-03-03T05:25:08.796Z,14.93
2019-03-03T05:26:16.932Z,13.72
2019-03-03T05:27:24.380Z,9.83
2019-03-03T05:28:29.385Z,10.38
2019-03-03T05:29:34.886Z,15.00
2019-03-03T05:30:40.414Z,11.35
2019-03-03T05:31:45.648Z,11.28
2019-03-03T05:32:50.893Z,12.00
2019-03-03T05:33:56.421Z,11.53
2019-03-03T05:35:01.388Z,12.58
2019-03-03T05:36:06.376Z,13.65
2019-03-03T05:37:11.049Z,11.93
2019-03-03T05:38:15.834Z,11.93
2019-03-03T05:39:21.281Z,9.55
2019-03-03T05:40:26.338Z,12.28
2019-03-03T05:41:31.301Z,8.75
2019-03-03T05:42:36.276Z,10.58
2019-03-03T05:43:41.288Z,9.80
2019-03-03T05:44:46.551Z,11.33
2019-03-03T05:45:51.543Z,9.88
2019-03-03T05:46:57.117Z,10.38
2019-03-03T05:48:02.354Z,11.20
2019-03-03T05:49:07.030Z,9.98
2019-03-03T05:50:11.492Z,10.93
2019-03-03T05:51:16.757Z,11.33
2019-03-03T05:52:22.100Z,12.05
2019-03-03T05:53:27.123Z,8.63
2019-03-03T05:54:32.209Z,8.55
2019-03-03T05:55:37.510Z,11.35
2019-03-03T05:56:42.242Z,13.13
2019-03-03T05:57:47.488Z,11.50
2019-03-03T05:58:53.016Z,10.10
2019-03-03T05:59:57.755Z,8.48
2019-03-03T06:01:03.054Z,13.55
2019-03-03T06:02:10.059Z,14.07
2019-03-03T06:03:15.120Z,16.27
2019-03-03T06:04:19.956Z,8.78
2019-03-03T06:05:24.974Z,9.80
2019-03-03T06:06:30.565Z,13.38
2019-03-03T06:07:36.143Z,11.22
2019-03-03T06:08:41.400Z,17.32
2019-03-03T06:09:46.640Z,9.78
2019-03-03T06:10:51.646Z,10.78
2019-03-03T06:11:56.897Z,9.40
2019-03-03T06:13:02.426Z,13.60
2019-03-03T06:14:07.379Z,6.85
2019-03-03T06:15:13.323Z,16.02
2019-03-03T06:16:18.349Z,11.93
2019-03-03T06:17:23.626Z,9.65
2019-03-03T06:18:28.913Z,6.92
2019-03-03T06:19:34.164Z,9.45
2019-03-03T06:20:39.125Z,12.37
2019-03-03T06:21:44.087Z,10.72
2019-03-03T06:22:49.627Z,13.25
2019-03-03T06:23:55.106Z,9.70
2019-03-03T06:25:00.295Z,12.37
2019-03-03T06:26:05.236Z,10.03
2019-03-03T06:27:10.223Z,11.57
2019-03-03T06:28:15.453Z,11.38
2019-03-03T06:29:23.505Z,10.13
2019-03-03T06:30:28.490Z,10.78
2019-03-03T06:31:33.773Z,11.68
2019-03-03T06:32:38.227Z,11.15
2019-03-03T06:33:42.716Z,12.90
2019-03-03T06:34:47.939Z,8.68
2019-03-03T06:35:52.930Z,9.43
2019-03-03T06:36:58.195Z,11.33
2019-03-03T06:38:03.540Z,8.68
2019-03-03T06:39:08.949Z,10.00
2019-03-03T06:40:13.644Z,10.35
2019-03-03T06:41:18.609Z,14.13
2019-03-03T06:42:23.672Z,12.35
2019-03-03T06:43:28.361Z,9.45
2019-03-03T06:44:33.587Z,10.30
2019-03-03T06:45:38.544Z,9.65
2019-03-03T06:46:43.223Z,8.63
2019-03-03T06:47:48.207Z,9.60
2019-03-03T06:48:53.772Z,10.32
2019-03-03T06:49:58.707Z,9.15
2019-03-03T06:51:03.713Z,7.05
2019-03-03T06:52:08.693Z,9.25
2019-03-03T06:53:13.711Z,8.68
2019-03-03T06:54:18.744Z,8.58
2019-03-03T06:55:23.693Z,12.73
2019-03-03T06:56:29.418Z,9.60
2019-03-03T06:57:34.103Z,14.05
2019-03-03T06:58:38.851Z,10.50
2019-03-03T06:59:43.611Z,9.63
2019-03-03T07:00:48.290Z,9.30
2019-03-03T07:01:53.312Z,12.65
2019-03-03T07:02:57.995Z,10.28
2019-03-03T07:04:03.273Z,17.50
2019-03-03T07:05:09.235Z,12.07
2019-03-03T07:06:13.910Z,11.48
2019-03-03T07:07:18.951Z,11.25
2019-03-03T07:08:23.929Z,9.78
2019-03-03T07:09:29.191Z,11.33
2019-03-03T07:10:33.973Z,12.93
2019-03-03T07:11:38.951Z,10.15
2019-03-03T07:12:43.932Z,10.05
2019-03-03T07:13:48.416Z,11.28
2019-03-03T07:14:53.196Z,12.55
2019-03-03T07:15:58.237Z,16.90
2019-03-03T07:17:03.479Z,8.80
2019-03-03T07:18:08.420Z,10.95
2019-03-03T07:19:13.703Z,11.78
2019-03-03T07:20:18.942Z,17.32
2019-03-03T07:21:23.891Z,11.53
2019-03-03T07:22:29.139Z,9.98
2019-03-03T07:23:34.139Z,11.15
2019-03-03T07:24:39.109Z,10.70
2019-03-03T07:25:44.352Z,14.10
2019-03-03T07:26:49.054Z,12.60
2019-03-03T07:27:54.000Z,12.40
2019-03-03T07:28:58.749Z,10.98
2019-03-03T07:30:04.097Z,12.53
2019-03-03T07:31:08.551Z,9.93
2019-03-03T07:32:13.339Z,9.68
2019-03-03T07:33:32.918Z,11.10
2019-03-03T07:34:38.237Z,11.60
2019-03-03T07:35:43.505Z,12.73
2019-03-03T07:36:48.183Z,11.08
2019-03-03T07:37:54.339Z,11.20
2019-03-03T07:38:59.338Z,12.60
2019-03-03T07:40:04.653Z,10.50
2019-03-03T07:41:09.362Z,10.10
2019-03-03T07:42:14.731Z,11.68
2019-03-03T07:43:19.992Z,8.60
2019-03-03T07:44:24.950Z,12.90
2019-03-03T07:45:29.461Z,15.20
2019-03-03T07:46:34.427Z,13.72
2019-03-03T07:47:39.215Z,12.37
2019-03-03T07:48:44.195Z,12.13
2019-03-03T07:49:51.386Z,12.93
2019-03-03T07:50:56.639Z,12.00
2019-03-03T07:52:01.629Z,8.95
2019-03-03T07:53:06.665Z,12.70
2019-03-03T07:54:11.530Z,11.70
2019-03-03T07:55:16.230Z,8.55
2019-03-03T07:56:21.319Z,9.68
2019-03-03T07:57:26.615Z,10.85
2019-03-03T07:58:31.577Z,8.90
2019-03-03T07:59:37.125Z,9.78
2019-03-03T08:00:41.830Z,7.30
2019-03-03T08:01:47.102Z,11.95
2019-03-03T08:02:52.370Z,12.53
2019-03-03T08:03:57.649Z,8.78
2019-03-03T08:05:02.332Z,9.55
2019-03-03T08:06:07.603Z,11.08
2019-03-03T08:07:12.378Z,6.12
2019-03-03T08:08:17.429Z,10.15
2019-03-03T08:09:22.698Z,10.45
2019-03-03T08:10:27.688Z,8.08
2019-03-03T08:11:32.949Z,10.75
2019-03-03T08:12:38.222Z,10.13
2019-03-03T08:13:43.203Z,6.90
2019-03-03T08:14:48.199Z,9.78
2019-03-03T08:15:52.944Z,9.25
2019-03-03T08:16:57.976Z,9.13
2019-03-03T08:18:03.243Z,6.30
2019-03-03T08:19:08.777Z,7.12
2019-03-03T08:20:13.820Z,6.05
2019-03-03T08:21:19.120Z,6.00
2019-03-03T08:22:24.414Z,5.55
2019-03-03T08:23:29.397Z,3.95
2019-03-03T08:24:34.381Z,6.15
2019-03-03T08:25:39.920Z,7.45
2019-03-03T08:26:44.888Z,6.45
2019-03-03T08:27:50.444Z,6.37
2019-03-03T08:28:54.913Z,7.03
2019-03-03T08:29:59.869Z,6.62
2019-03-03T08:31:05.177Z,3.85
2019-03-03T08:32:10.149Z,7.05
2019-03-03T08:33:15.511Z,4.62
2019-03-03T08:34:20.186Z,4.80
2019-03-03T08:35:25.198Z,6.55
2019-03-03T08:36:30.820Z,3.25
2019-03-03T08:37:36.349Z,4.33
2019-03-03T08:38:41.051Z,3.80
2019-03-03T08:39:46.022Z,4.40
2019-03-03T08:40:51.279Z,4.90
2019-03-03T08:42:01.718Z,3.95
2019-03-03T08:43:21.945Z,5.00
2019-03-03T08:44:48.821Z,4.37
2019-03-03T08:46:18.812Z,3.98
2019-03-03T08:47:35.115Z,6.42
2019-03-03T08:48:43.984Z,6.90
2019-03-03T08:49:55.636Z,6.05
2019-03-03T08:51:25.340Z,4.28
2019-03-03T08:52:38.655Z,4.85
2019-03-03T08:54:05.446Z,5.53
2019-03-03T08:55:28.111Z,3.47
2019-03-03T08:56:51.722Z,4.75
2019-03-03T08:58:18.431Z,3.83
2019-03-03T08:59:28.088Z,4.97
2019-03-03T09:00:41.074Z,3.58
2019-03-03T09:02:04.083Z,4.33
2019-03-03T09:03:27.935Z,4.70
2019-03-03T09:05:09.876Z,4.47
2019-03-03T09:06:32.322Z,3.17
2019-03-03T09:07:54.272Z,3.45
2019-03-03T09:09:12.401Z,2.12
2019-03-03T09:10:36.547Z,3.30
2019-03-03T09:12:00.871Z,4.00
2019-03-03T09:13:15.670Z,2.92
2019-03-03T09:14:52.102Z,2.22
2019-03-03T09:16:15.676Z,2.40
2019-03-03T09:17:40.405Z,3.80
2019-03-03T09:19:05.394Z,5.15
2019-03-03T09:20:16.049Z,5.10
2019-03-03T09:21:41.120Z,6.97
2019-03-03T09:23:10.716Z,3.00
2019-03-03T09:24:24.857Z,3.52
2019-03-03T09:25:49.062Z,3.58
2019-03-03T09:27:09.253Z,4.80
2019-03-03T09:28:48.062Z,2.85
2019-03-03T09:30:11.687Z,4.10
2019-03-03T09:31:37.616Z,3.30
2019-03-03T09:32:57.291Z,5.17
2019-03-03T09:34:09.526Z,2.30
2019-03-03T09:35:31.307Z,4.20
2019-03-03T09:36:54.531Z,6.50
2019-03-03T09:38:08.359Z,5.78
2019-03-03T09:39:26.300Z,2.98
2019-03-03T09:40:49.873Z,3.35
2019-03-03T09:42:10.813Z,5.22
2019-03-03T09:43:33.595Z,6.35
2019-03-03T09:44:49.803Z,8.48
2019-03-03T09:46:25.816Z,2.35
2019-03-03T09:47:42.930Z,3.65
2019-03-03T09:49:07.635Z,4.53
2019-03-03T09:50:22.475Z,4.10
2019-03-03T09:51:35.865Z,4.58
2019-03-03T09:53:05.877Z,5.30
2019-03-03T09:54:35.818Z,9.15
2019-03-03T09:55:55.378Z,11.80
2019-03-03T09:57:21.792Z,4.33
2019-03-03T09:58:37.276Z,5.28
2019-03-03T10:00:00.094Z,4.90
2019-03-03T10:01:23.159Z,5.90
2019-03-03T10:02:36.840Z,3.52
2019-03-03T10:03:52.179Z,3.15
2019-03-03T10:05:14.969Z,3.27
2019-03-03T10:06:41.979Z,3.35
2019-03-03T10:08:23.789Z,3.27
2019-03-03T10:09:48.817Z,2.00
2019-03-03T10:11:11.718Z,4.42
2019-03-03T10:12:29.703Z,4.87
2019-03-03T10:13:53.072Z,3.22
2019-03-03T10:15:10.034Z,5.60
2019-03-03T10:16:25.943Z,3.10
2019-03-03T10:17:43.165Z,4.80
2019-03-03T10:19:07.185Z,4.22
2019-03-03T10:20:28.932Z,6.45
2019-03-03T10:21:51.581Z,2.83
2019-03-03T10:23:12.795Z,3.72
2019-03-03T10:24:36.655Z,2.83
2019-03-03T10:25:50.048Z,3.22
2019-03-03T10:27:12.488Z,4.50
2019-03-03T10:28:27.053Z,3.00
2019-03-03T10:29:51.336Z,3.95
2019-03-03T10:31:06.952Z,4.37
2019-03-03T10:32:20.883Z,3.17
2019-03-03T10:33:42.255Z,3.20
2019-03-03T10:35:02.420Z,4.37
2019-03-03T10:36:18.543Z,2.30
2019-03-03T10:37:41.416Z,4.67
2019-03-03T10:39:03.661Z,3.62
2019-03-03T10:40:42.724Z,2.55
2019-03-03T10:42:18.715Z,3.37
2019-03-03T10:43:48.133Z,3.98
2019-03-03T10:45:27.389Z,4.12
2019-03-03T10:46:40.846Z,3.70
2019-03-03T10:47:57.490Z,2.92
2019-03-03T10:49:14.936Z,4.05
2019-03-03T10:50:53.956Z,2.30
2019-03-03T10:52:17.987Z,3.45
2019-03-03T10:53:48.173Z,2.90
2019-03-03T10:55:01.338Z,1.42
2019-03-03T10:56:13.831Z,2.87
2019-03-03T10:57:37.733Z,2.40
2019-03-03T10:59:04.711Z,2.72
2019-03-03T11:00:33.936Z,1.07
2019-03-03T11:02:03.540Z,2.65
2019-03-03T11:03:33.636Z,1.75
2019-03-03T11:05:00.896Z,1.87
2019-03-03T11:06:37.197Z,2.05
2019-03-03T11:07:56.360Z,1.52
2019-03-03T11:09:19.154Z,1.70
2019-03-03T11:10:44.131Z,2.92
2019-03-03T11:12:06.363Z,2.58
2019-03-03T11:13:28.775Z,1.87
2019-03-03T11:15:01.769Z,2.42
2019-03-03T11:16:24.560Z,2.12
2019-03-03T11:17:37.318Z,2.42
2019-03-03T11:18:58.954Z,1.85
2019-03-03T11:20:18.602Z,1.10
2019-03-03T11:21:42.266Z,1.72
2019-03-03T11:23:15.285Z,2.05
2019-03-03T11:24:26.808Z,1.52
2019-03-03T11:26:00.346Z,1.95
2019-03-03T11:27:20.907Z,1.55
2019-03-03T11:28:41.281Z,1.10
2019-03-03T11:30:10.791Z,2.30
2019-03-03T11:31:35.059Z,1.75
2019-03-03T11:32:50.203Z,0.95
2019-03-03T11:34:13.435Z,0.70
2019-03-03T11:35:33.953Z,1.22
2019-03-03T11:36:50.356Z,1.72
2019-03-03T11:38:04.900Z,1.32
2019-03-03T11:39:17.388Z,1.47
2019-03-03T11:40:37.299Z,1.70
2019-03-03T11:41:54.600Z,1.22
2019-03-03T11:43:21.615Z,0.93
2019-03-03T11:44:45.540Z,2.25
2019-03-03T11:46:09.981Z,2.52
2019-03-03T11:47:33.849Z,2.33
2019-03-03T11:49:16.257Z,2.25
2019-03-03T11:50:27.904Z,2.40
2019-03-03T11:51:42.165Z,1.45
2019-03-03T11:53:05.528Z,1.90
2019-03-03T11:54:18.345Z,1.52
2019-03-03T11:55:42.490Z,2.00
2019-03-03T11:57:08.906Z,1.42
2019-03-03T11:58:32.071Z,1.10
2019-03-03T11:59:56.664Z,2.58
2019-03-03T12:01:09.874Z,2.10
2019-03-03T12:02:32.838Z,1.12
2019-03-03T12:03:53.907Z,2.58
2019-03-03T12:05:23.822Z,2.72
2019-03-03T12:07:02.870Z,3.12
2019-03-03T12:08:17.627Z,2.20
2019-03-03T12:09:40.261Z,1.77
2019-03-03T12:11:07.420Z,3.33
2019-03-03T12:12:30.237Z,2.72
2019-03-03T12:13:44.569Z,3.42
2019-03-03T12:15:17.798Z,1.35
2019-03-03T12:16:32.693Z,1.57
2019-03-03T12:17:46.684Z,2.55
2019-03-03T12:19:09.499Z,3.20
2019-03-03T12:20:23.434Z,1.60
2019-03-03T12:21:36.037Z,2.25
2019-03-03T12:22:49.672Z,2.52
2019-03-03T12:24:12.920Z,2.65
2019-03-03T12:25:39.337Z,2.67
2019-03-03T12:27:06.338Z,2.42
2019-03-03T12:28:42.327Z,2.45
2019-03-03T12:29:55.930Z,1.27
2019-03-03T12:31:31.720Z,1.32
2019-03-03T12:32:45.682Z,2.35
2019-03-03T12:34:21.663Z,1.35
2019-03-03T12:35:40.322Z,2.08
2019-03-03T12:37:13.259Z,2.62
2019-03-03T12:38:48.941Z,2.33
2019-03-03T12:40:18.694Z,2.37
2019-03-03T12:41:42.543Z,2.65
2019-03-03T12:42:58.920Z,3.08
2019-03-03T12:44:25.629Z,2.15
2019-03-03T12:45:47.907Z,3.08
2019-03-03T12:47:09.446Z,1.50
2019-03-03T12:48:30.602Z,2.12
2019-03-03T12:50:00.218Z,2.77
2019-03-03T12:51:23.894Z,2.80
2019-03-03T12:52:50.258Z,2.65
2019-03-03T12:54:05.926Z,2.62
2019-03-03T12:55:36.547Z,2.80
2019-03-03T12:56:56.931Z,2.75
2019-03-03T12:58:20.930Z,2.35
2019-03-03T12:59:44.813Z,1.65
2019-03-03T13:01:07.362Z,4.95
2019-03-03T13:02:22.752Z,3.10
2019-03-03T13:03:46.598Z,4.53
2019-03-03T13:05:19.456Z,4.47
2019-03-03T13:06:37.147Z,4.37
2019-03-03T13:07:59.376Z,3.00
2019-03-03T13:09:35.584Z,4.42
2019-03-03T13:10:59.419Z,4.35
2019-03-03T13:12:11.107Z,3.90
2019-03-03T13:13:33.399Z,3.37
2019-03-03T13:14:46.725Z,4.05
2019-03-03T13:16:09.829Z,2.98
2019-03-03T13:17:36.504Z,3.35
2019-03-03T13:19:00.368Z,1.85
2019-03-03T13:20:17.478Z,3.87
2019-03-03T13:21:59.838Z,2.83
2019-03-03T13:23:20.463Z,3.10
2019-03-03T13:24:42.709Z,1.40
2019-03-03T13:26:03.308Z,2.85
2019-03-03T13:27:22.951Z,3.20
2019-03-03T13:28:59.222Z,2.33
2019-03-03T13:30:22.426Z,1.50
2019-03-03T13:31:48.545Z,2.67
2019-03-03T13:33:06.810Z,3.45
2019-03-03T13:34:29.699Z,4.42
2019-03-03T13:35:53.588Z,4.20
2019-03-03T13:37:04.717Z,2.62
2019-03-03T13:38:17.127Z,5.35
2019-03-03T13:39:49.656Z,3.27
2019-03-03T13:41:11.198Z,3.95
2019-03-03T13:42:31.260Z,4.12
2019-03-03T13:43:36.239Z,1.90
2019-03-03T13:44:41.216Z,3.85
2019-03-03T13:45:46.490Z,3.45
2019-03-03T13:46:51.269Z,2.80
2019-03-03T13:47:56.058Z,3.08
2019-03-03T13:49:00.797Z,2.70
2019-03-03T13:50:05.957Z,1.80
2019-03-03T13:51:11.017Z,3.95
2019-03-03T13:52:16.116Z,4.22
2019-03-03T13:53:21.441Z,5.58
2019-03-03T13:54:26.966Z,2.65
2019-03-03T13:55:31.659Z,2.65
2019-03-03T13:56:36.111Z,3.55
2019-03-03T13:57:41.270Z,3.37
2019-03-03T13:58:45.978Z,5.42
2019-03-03T13:59:51.266Z,4.92
2019-03-03T14:00:56.214Z,4.08
2019-03-03T14:02:01.471Z,2.80
2019-03-03T14:03:06.549Z,2.77
2019-03-03T14:04:11.287Z,4.47
2019-03-03T14:05:18.560Z,2.95
2019-03-03T14:06:24.059Z,3.35
2019-03-03T14:07:29.052Z,4.17
2019-03-03T14:08:34.182Z,3.87
2019-03-03T14:09:38.686Z,3.83
2019-03-03T14:10:43.725Z,4.75
2019-03-03T14:11:48.705Z,3.15
2019-03-03T14:12:53.657Z,5.35
2019-03-03T14:13:58.618Z,4.12
2019-03-03T14:15:03.371Z,5.20
2019-03-03T14:16:08.085Z,5.15
2019-03-03T14:17:13.570Z,3.98
2019-03-03T14:18:18.516Z,5.37
2019-03-03T14:19:23.223Z,5.92
2019-03-03T14:20:27.720Z,7.45
2019-03-03T14:21:32.736Z,6.53
2019-03-03T14:22:37.749Z,5.60
2019-03-03T14:23:43.283Z,4.50
2019-03-03T14:24:47.996Z,4.37
2019-03-03T14:25:52.669Z,4.17
2019-03-03T14:26:57.677Z,7.70
2019-03-03T14:28:02.980Z,5.17
2019-03-03T14:29:07.975Z,6.95
2019-03-03T14:30:14.384Z,3.87
2019-03-03T14:31:19.622Z,6.15
2019-03-03T14:32:24.878Z,2.98
2019-03-03T14:33:29.851Z,6.30
2019-03-03T14:34:34.839Z,3.65
2019-03-03T14:35:39.507Z,6.35
2019-03-03T14:36:44.197Z,4.62
2019-03-03T14:37:49.592Z,6.40
2019-03-03T14:38:54.932Z,5.45
2019-03-03T14:40:00.331Z,7.37
2019-03-03T14:41:05.385Z,5.05
2019-03-03T14:42:10.155Z,5.28
2019-03-03T14:43:15.525Z,4.12
2019-03-03T14:44:20.546Z,5.80
2019-03-03T14:45:25.051Z,6.97
2019-03-03T14:46:29.481Z,6.60
2019-03-03T14:47:34.170Z,9.50
2019-03-03T14:48:39.137Z,5.40
2019-03-03T14:49:44.210Z,6.83
2019-03-03T14:50:49.462Z,6.20
2019-03-03T14:51:54.799Z,6.30
2019-03-03T14:52:59.260Z,6.70
2019-03-03T14:54:03.973Z,7.87
2019-03-03T14:55:10.807Z,7.22
2019-03-03T14:56:16.034Z,6.22
2019-03-03T14:57:20.548Z,4.80
2019-03-03T14:58:25.604Z,6.85
2019-03-03T14:59:30.901Z,4.87
2019-03-03T15:00:35.365Z,8.20
2019-03-03T15:01:40.332Z,5.67
2019-03-03T15:02:45.056Z,7.90
2019-03-03T15:03:49.411Z,6.78
2019-03-03T15:04:54.626Z,6.37
2019-03-03T15:06:00.180Z,7.00
2019-03-03T15:07:04.941Z,8.68
2019-03-03T15:08:09.705Z,4.42
2019-03-03T15:09:22.201Z,9.05
2019-03-03T15:10:27.226Z,6.30
2019-03-03T15:11:32.184Z,5.53
2019-03-03T15:12:36.620Z,9.88
2019-03-03T15:13:41.550Z,8.45
2019-03-03T15:14:46.824Z,11.20
2019-03-03T15:15:51.790Z,7.72
2019-03-03T15:16:56.583Z,9.43
2019-03-03T15:18:01.832Z,9.45
2019-03-03T15:19:06.803Z,7.95
2019-03-03T15:20:12.159Z,8.50
2019-03-03T15:21:24.710Z,11.28
2019-03-03T15:22:24.122Z,8.58
2019-03-03T15:23:29.104Z,8.15
2019-03-03T15:24:34.358Z,8.50
2019-03-03T15:25:39.301Z,7.78
2019-03-03T15:26:44.541Z,7.17
2019-03-03T15:27:49.224Z,7.60
2019-03-03T15:28:53.906Z,10.48
2019-03-03T15:29:59.198Z,7.62
2019-03-03T15:31:04.094Z,6.85
2019-03-03T15:32:09.061Z,11.63
2019-03-03T15:33:14.405Z,7.12
2019-03-03T15:34:19.366Z,10.08
2019-03-03T15:35:24.679Z,6.17
2019-03-03T15:36:30.234Z,8.20
2019-03-03T15:37:34.932Z,9.05
2019-03-03T15:38:40.187Z,9.80
2019-03-03T15:39:44.630Z,5.30
2019-03-03T15:40:49.907Z,9.93
2019-03-03T15:41:54.871Z,10.08
2019-03-03T15:42:59.560Z,6.95
2019-03-03T15:44:04.995Z,8.85
2019-03-03T15:45:11.378Z,10.58
2019-03-03T15:46:16.397Z,8.88
2019-03-03T15:47:21.441Z,8.83
2019-03-03T15:48:26.175Z,5.78
2019-03-03T15:49:30.652Z,7.75
2019-03-03T15:50:35.369Z,9.05
2019-03-03T15:51:40.622Z,9.30
2019-03-03T15:52:46.285Z,6.15
2019-03-03T15:53:51.823Z,6.53
2019-03-03T15:54:56.873Z,7.83
2019-03-03T15:56:01.896Z,8.23
2019-03-03T15:57:06.933Z,8.45
2019-03-03T15:58:11.897Z,8.98
2019-03-03T15:59:17.171Z,9.25
2019-03-03T16:00:24.075Z,6.10
2019-03-03T16:01:29.055Z,8.33
2019-03-03T16:02:34.477Z,8.90
2019-03-03T16:03:39.741Z,6.95
2019-03-03T16:04:46.770Z,7.47